Portada
METAR-TAF:

METAR-TAF

Aeroports :

Port Stanley, Illes Malvines

latitud: 51-49S, longitud: 058-27W, altitud: 74 m

Observació

L'informe es va fer fa 55 minuts, a les 09:50 UTC
Vent 5 kt del Oest
Temperatura 6°C
Humitat 93%
Pressió 1003 hPa
Visibilitat 10 km o més
Escasses núvols a una alçada de 1000 ft

METAR: EGYP 250950Z 28005KT 9999 FEW010 06/05 Q1003

Hora: 07:45 (10:45 UTC)

Pronòstic

L'informe es va fer fa 2 hores i 59 minuts, a les 07:46 UTC
Pronòstic vàlid del 25 a les 09 UTC al 26 a les 03 UTC
Vent 4 kt amb direcció variable
Visibilitat 10 km o més
Escasses núvols a una alçada de 2200 ft
Probabilitat 40% :
Temporalment
l' 25 a les 09 UTC al 25 a les 13 UTC
Núvols disperses a una alçada de 2000 ft
Evolucionant progressivament
l' 25 a les 16 UTC al 25 a les 19 UTC
Vent 15 kt del Nord-Oest

TAF: EGYP 250746Z 2509/2603 VRB04KT 9999 FEW022 PROB40 TEMPO 2509/2513 SCT020 BECMG 2516/2519 32015KT

Observacions i pronòstics meteorològics de més de 4000 aeroports (METAR i TAF).

Les estacions disponibles són els punts grocs i vermells al mapa.

Posi el ratolí al punt desitjat per veure el nom de l'estació.

Feu clic per veure les observacions i els pronòstics meteorològics.

Per canviar el mapa: feu clic els botons verds amb una creu de color negre per apropar; al botó verd amb un guió per allunyar la imatge; o en les fletxes verdes per a mapes adjacents.


METAR-TAF: